EWG4CP ESSA-EDDH
Flight info
| Callsign | EWG4CP |
|---|---|
| Flight time | 1h 6m |
| Altitude | 38000 |
| Route | NOSLI N850 ABAMA DCT GIMRU T503 MICOS N850 BOGMU BOGMU3S |
| Aircraft | A320/M-SDE3FGHIRWY/LB1 |
Departure
| Time | 2026-04-23 17:56 |
|---|---|
| Airport | Stockholm-Arlanda Airport (ESSA) |
Arrival
| Time | 2026-04-23 19:02 |
|---|---|
| Airport | Hamburg Helmut Schmidt Airport (EDDH) |
| Time | Latitude | Longitude | Altitude | Speed | Heading |
|---|---|---|---|---|---|
| 2026-04-23 17:27 | 59.65243 | 17.93003 | 138 ft | 0 kts | 70° |
| 2026-04-23 17:42 | 59.65239 | 17.92980 | 137 ft | 4 kts | 68° |
| 2026-04-23 17:43 | 59.65228 | 17.92931 | 137 ft | 4 kts | 59° |
| 2026-04-23 17:43 | 59.65212 | 17.92890 | 137 ft | 4 kts | 35° |
| 2026-04-23 17:43 | 59.65193 | 17.92877 | 137 ft | 3 kts | 328° |
| 2026-04-23 17:43 | 59.65188 | 17.92884 | 137 ft | 0 kts | 326° |
| 2026-04-23 17:45 | 59.65197 | 17.92872 | 137 ft | 5 kts | 326° |
| 2026-04-23 17:46 | 59.65280 | 17.92777 | 137 ft | 10 kts | 333° |
| 2026-04-23 17:46 | 59.65338 | 17.92721 | 137 ft | 9 kts | 334° |
| 2026-04-23 17:46 | 59.65393 | 17.92677 | 138 ft | 7 kts | 352° |
| 2026-04-23 17:47 | 59.65431 | 17.92717 | 138 ft | 6 kts | 53° |
| 2026-04-23 17:47 | 59.65449 | 17.92786 | 138 ft | 9 kts | 65° |
| 2026-04-23 17:47 | 59.65516 | 17.93194 | 138 ft | 15 kts | 76° |
| 2026-04-23 17:48 | 59.65572 | 17.93308 | 138 ft | 11 kts | 3° |
| 2026-04-23 17:48 | 59.65639 | 17.93339 | 138 ft | 9 kts | 19° |
| 2026-04-23 17:48 | 59.65682 | 17.93405 | 138 ft | 7 kts | 46° |
| 2026-04-23 17:48 | 59.65713 | 17.93471 | 138 ft | 6 kts | 47° |
| 2026-04-23 17:49 | 59.65725 | 17.93496 | 138 ft | 0 kts | 46° |
| 2026-04-23 17:51 | 59.65730 | 17.93506 | 138 ft | 6 kts | 46° |
| 2026-04-23 17:51 | 59.65760 | 17.93568 | 138 ft | 6 kts | 46° |
| 2026-04-23 17:51 | 59.65864 | 17.93797 | 137 ft | 10 kts | 66° |
| 2026-04-23 17:52 | 59.65876 | 17.93877 | 137 ft | 0 kts | 76° |
| 2026-04-23 17:55 | 59.66014 | 17.94965 | 136 ft | 109 kts | 76° |
| 2026-04-23 17:55 | 59.66250 | 17.96784 | 182 ft | 159 kts | 74° |
| 2026-04-23 17:55 | 59.66532 | 17.99065 | 500 ft | 176 kts | 75° |
| 2026-04-23 17:56 | 59.66802 | 18.01410 | 1082 ft | 175 kts | 73° |
| 2026-04-23 17:56 | 59.67699 | 18.06040 | 1972 ft | 193 kts | 33° |
| 2026-04-23 17:56 | 59.68963 | 18.06768 | 2518 ft | 193 kts | 356° |
| 2026-04-23 17:57 | 59.70238 | 18.06011 | 3192 ft | 194 kts | 329° |
| 2026-04-23 17:57 | 59.71145 | 18.04047 | 3878 ft | 198 kts | 299° |
| 2026-04-23 17:57 | 59.71357 | 17.98257 | 4867 ft | 231 kts | 277° |
| 2026-04-23 17:58 | 59.71426 | 17.94943 | 5346 ft | 248 kts | 277° |
| 2026-04-23 17:58 | 59.71525 | 17.91483 | 6153 ft | 254 kts | 278° |
| 2026-04-23 17:58 | 59.71632 | 17.87966 | 6969 ft | 258 kts | 278° |
| 2026-04-23 17:58 | 59.71733 | 17.84419 | 7731 ft | 264 kts | 278° |
| 2026-04-23 17:59 | 59.71827 | 17.80745 | 8538 ft | 270 kts | 278° |
| 2026-04-23 17:59 | 59.71915 | 17.76992 | 9314 ft | 276 kts | 278° |
| 2026-04-23 17:59 | 59.72000 | 17.73151 | 10059 ft | 282 kts | 278° |
| 2026-04-23 17:59 | 59.72088 | 17.69126 | 10374 ft | 304 kts | 278° |
| 2026-04-23 18:00 | 59.72194 | 17.64790 | 10590 ft | 327 kts | 278° |
| 2026-04-23 18:00 | 59.72319 | 17.60125 | 10745 ft | 350 kts | 277° |
| 2026-04-23 18:00 | 59.72170 | 17.55135 | 11167 ft | 369 kts | 261° |
| 2026-04-23 18:00 | 59.71137 | 17.50389 | 11804 ft | 385 kts | 240° |
| 2026-04-23 18:01 | 59.69224 | 17.46569 | 12411 ft | 402 kts | 218° |
| 2026-04-23 18:01 | 59.66599 | 17.44239 | 12538 ft | 427 kts | 197° |
| 2026-04-23 18:01 | 59.63686 | 17.43025 | 12885 ft | 438 kts | 192° |
| 2026-04-23 18:01 | 59.60618 | 17.42074 | 13408 ft | 443 kts | 190° |
| 2026-04-23 18:02 | 59.58588 | 17.41537 | 13747 ft | 446 kts | 189° |
| 2026-04-23 18:02 | 59.54450 | 17.40482 | 14380 ft | 450 kts | 189° |
| 2026-04-23 18:02 | 59.51369 | 17.39648 | 14814 ft | 455 kts | 190° |
| 2026-04-23 18:02 | 59.48226 | 17.38731 | 15239 ft | 459 kts | 191° |
| 2026-04-23 18:03 | 59.45054 | 17.37747 | 15663 ft | 463 kts | 191° |
| 2026-04-23 18:03 | 59.41856 | 17.36714 | 16077 ft | 468 kts | 191° |
| 2026-04-23 18:03 | 59.38634 | 17.35652 | 16487 ft | 472 kts | 191° |
| 2026-04-23 18:03 | 59.35379 | 17.34587 | 16899 ft | 476 kts | 191° |
| 2026-04-23 18:04 | 59.32096 | 17.33533 | 17300 ft | 480 kts | 191° |
| 2026-04-23 18:04 | 59.28779 | 17.32487 | 17685 ft | 484 kts | 191° |
| 2026-04-23 18:04 | 59.25484 | 17.31025 | 18060 ft | 486 kts | 202° |
| 2026-04-23 18:04 | 59.22469 | 17.28104 | 18414 ft | 483 kts | 217° |
| 2026-04-23 18:05 | 59.19744 | 17.24256 | 18759 ft | 484 kts | 220° |
| 2026-04-23 18:05 | 59.17027 | 17.20328 | 19126 ft | 486 kts | 220° |
| 2026-04-23 18:05 | 59.14309 | 17.16382 | 19491 ft | 489 kts | 220° |
| 2026-04-23 18:05 | 59.11574 | 17.12422 | 19847 ft | 491 kts | 220° |
| 2026-04-23 18:06 | 59.08821 | 17.08463 | 20201 ft | 493 kts | 220° |
| 2026-04-23 18:06 | 59.06052 | 17.04504 | 20527 ft | 495 kts | 220° |
| 2026-04-23 18:06 | 59.03263 | 17.00531 | 20876 ft | 497 kts | 220° |
| 2026-04-23 18:06 | 59.00469 | 16.96562 | 21233 ft | 498 kts | 220° |
| 2026-04-23 18:07 | 58.97666 | 16.92584 | 21542 ft | 500 kts | 220° |
| 2026-04-23 18:07 | 58.94853 | 16.88593 | 21851 ft | 502 kts | 220° |
| 2026-04-23 18:07 | 58.92056 | 16.84628 | 22170 ft | 504 kts | 220° |
| 2026-04-23 18:07 | 58.89222 | 16.80623 | 22470 ft | 506 kts | 220° |
| 2026-04-23 18:08 | 58.87297 | 16.77910 | 22662 ft | 507 kts | 220° |
| 2026-04-23 18:08 | 58.83507 | 16.72576 | 23062 ft | 510 kts | 220° |
| 2026-04-23 18:08 | 58.80636 | 16.68546 | 23348 ft | 512 kts | 220° |
| 2026-04-23 18:08 | 58.77755 | 16.64507 | 23634 ft | 513 kts | 219° |
| 2026-04-23 18:09 | 58.74861 | 16.60462 | 23879 ft | 514 kts | 219° |
| 2026-04-23 18:09 | 58.71958 | 16.56415 | 24096 ft | 515 kts | 219° |
| 2026-04-23 18:09 | 58.69056 | 16.52379 | 24358 ft | 515 kts | 219° |
| 2026-04-23 18:09 | 58.66146 | 16.48337 | 24591 ft | 517 kts | 219° |
| 2026-04-23 18:10 | 58.63227 | 16.44298 | 24798 ft | 518 kts | 219° |
| 2026-04-23 18:10 | 58.60295 | 16.40255 | 25012 ft | 520 kts | 219° |
| 2026-04-23 18:10 | 58.57353 | 16.36209 | 25234 ft | 521 kts | 219° |
| 2026-04-23 18:10 | 58.54406 | 16.32157 | 25480 ft | 521 kts | 219° |
| 2026-04-23 18:11 | 58.51462 | 16.28111 | 25797 ft | 520 kts | 219° |
| 2026-04-23 18:11 | 58.48526 | 16.24078 | 26111 ft | 520 kts | 219° |
| 2026-04-23 18:11 | 58.45590 | 16.20057 | 26437 ft | 519 kts | 219° |
| 2026-04-23 18:11 | 58.42645 | 16.16034 | 26659 ft | 521 kts | 219° |
| 2026-04-23 18:12 | 58.39687 | 16.12003 | 26890 ft | 523 kts | 219° |
| 2026-04-23 18:12 | 58.36726 | 16.07974 | 27121 ft | 524 kts | 219° |
| 2026-04-23 18:12 | 58.33750 | 16.03932 | 27398 ft | 525 kts | 219° |
| 2026-04-23 18:12 | 58.30783 | 15.99916 | 27901 ft | 520 kts | 219° |
| 2026-04-23 18:13 | 58.27836 | 15.95937 | 28290 ft | 518 kts | 219° |
| 2026-04-23 18:13 | 58.24893 | 15.91968 | 28582 ft | 519 kts | 219° |
| 2026-04-23 18:13 | 58.21946 | 15.87999 | 28826 ft | 521 kts | 219° |
| 2026-04-23 18:13 | 58.18986 | 15.84022 | 29058 ft | 522 kts | 219° |
| 2026-04-23 18:14 | 58.16976 | 15.81328 | 29251 ft | 523 kts | 219° |
| 2026-04-23 18:14 | 58.13036 | 15.76069 | 29679 ft | 522 kts | 219° |
| 2026-04-23 18:14 | 58.10063 | 15.72114 | 30023 ft | 522 kts | 219° |
| 2026-04-23 18:14 | 58.08098 | 15.69502 | 30217 ft | 522 kts | 219° |
| 2026-04-23 18:15 | 58.05128 | 15.65557 | 30500 ft | 521 kts | 219° |
| 2026-04-23 18:15 | 58.02160 | 15.61615 | 30795 ft | 520 kts | 220° |
| 2026-04-23 18:15 | 57.99198 | 15.57682 | 31109 ft | 519 kts | 220° |
| 2026-04-23 18:15 | 57.96261 | 15.53749 | 31400 ft | 518 kts | 220° |
| 2026-04-23 18:16 | 57.93349 | 15.49763 | 31686 ft | 517 kts | 221° |
| 2026-04-23 18:16 | 57.90458 | 15.45742 | 32001 ft | 516 kts | 221° |
| 2026-04-23 18:16 | 57.87583 | 15.41715 | 32295 ft | 515 kts | 222° |
| 2026-04-23 18:17 | 57.81841 | 15.33719 | 32948 ft | 512 kts | 221° |
| 2026-04-23 18:17 | 57.78978 | 15.29773 | 33354 ft | 508 kts | 221° |
| 2026-04-23 18:17 | 57.76134 | 15.25883 | 33768 ft | 505 kts | 221° |
| 2026-04-23 18:17 | 57.73294 | 15.22011 | 34018 ft | 505 kts | 221° |
| 2026-04-23 18:18 | 57.67646 | 15.14339 | 34078 ft | 498 kts | 221° |
| 2026-04-23 18:18 | 57.62059 | 15.06764 | 34073 ft | 499 kts | 221° |
| 2026-04-23 18:19 | 57.56441 | 14.99151 | 34067 ft | 498 kts | 221° |
| 2026-04-23 18:19 | 57.50838 | 14.91598 | 34079 ft | 497 kts | 221° |
| 2026-04-23 18:20 | 57.45230 | 14.84093 | 34083 ft | 497 kts | 221° |
| 2026-04-23 18:20 | 57.39618 | 14.76595 | 34082 ft | 497 kts | 221° |
| 2026-04-23 18:21 | 57.34000 | 14.69113 | 34059 ft | 497 kts | 221° |
| 2026-04-23 18:21 | 57.28380 | 14.61662 | 34056 ft | 497 kts | 221° |
| 2026-04-23 18:22 | 57.22744 | 14.54226 | 34055 ft | 498 kts | 221° |
| 2026-04-23 18:22 | 57.17107 | 14.46809 | 34057 ft | 498 kts | 221° |
| 2026-04-23 18:23 | 57.08640 | 14.35712 | 34051 ft | 497 kts | 221° |
| 2026-04-23 18:24 | 57.00181 | 14.24703 | 34071 ft | 495 kts | 220° |
| 2026-04-23 18:25 | 56.91766 | 14.13811 | 34107 ft | 492 kts | 220° |
| 2026-04-23 18:25 | 56.86213 | 14.06652 | 34111 ft | 491 kts | 220° |
| 2026-04-23 18:26 | 56.80632 | 13.99479 | 34104 ft | 490 kts | 220° |
| 2026-04-23 18:26 | 56.75051 | 13.92335 | 34110 ft | 489 kts | 220° |
| 2026-04-23 18:27 | 56.69470 | 13.85228 | 34113 ft | 489 kts | 220° |
| 2026-04-23 18:27 | 56.63887 | 13.78164 | 34110 ft | 488 kts | 220° |
| 2026-04-23 18:28 | 56.58315 | 13.71104 | 34094 ft | 489 kts | 220° |
| 2026-04-23 18:28 | 56.52729 | 13.64041 | 34093 ft | 490 kts | 220° |
| 2026-04-23 18:29 | 56.47127 | 13.57016 | 34096 ft | 490 kts | 219° |
| 2026-04-23 18:29 | 56.41515 | 13.50003 | 34103 ft | 490 kts | 219° |
| 2026-04-23 18:30 | 56.35899 | 13.43004 | 34096 ft | 490 kts | 219° |
| 2026-04-23 18:30 | 56.30283 | 13.36031 | 34101 ft | 491 kts | 219° |
| 2026-04-23 18:31 | 56.24657 | 13.29060 | 34095 ft | 491 kts | 219° |
| 2026-04-23 18:31 | 56.19014 | 13.22103 | 34083 ft | 491 kts | 219° |
| 2026-04-23 18:32 | 56.13372 | 13.15181 | 34096 ft | 490 kts | 219° |
| 2026-04-23 18:32 | 56.07747 | 13.08289 | 34116 ft | 490 kts | 219° |
| 2026-04-23 18:33 | 56.02112 | 13.01408 | 34122 ft | 490 kts | 219° |
| 2026-04-23 18:33 | 55.96513 | 12.94606 | 34124 ft | 490 kts | 218° |
| 2026-04-23 18:34 | 55.90870 | 12.87772 | 34123 ft | 490 kts | 219° |
| 2026-04-23 18:34 | 55.85234 | 12.80956 | 34110 ft | 490 kts | 218° |
| 2026-04-23 18:35 | 55.79589 | 12.74177 | 34105 ft | 490 kts | 218° |
| 2026-04-23 18:35 | 55.73940 | 12.67411 | 34100 ft | 490 kts | 218° |
| 2026-04-23 18:36 | 55.68306 | 12.60617 | 34097 ft | 490 kts | 219° |
| 2026-04-23 18:36 | 55.62691 | 12.53798 | 34087 ft | 490 kts | 218° |
| 2026-04-23 18:37 | 55.57068 | 12.46995 | 34095 ft | 490 kts | 218° |
| 2026-04-23 18:37 | 55.51418 | 12.40206 | 34120 ft | 490 kts | 218° |
| 2026-04-23 18:38 | 55.45773 | 12.33456 | 34123 ft | 490 kts | 218° |
| 2026-04-23 18:38 | 55.40148 | 12.26747 | 33473 ft | 484 kts | 218° |
| 2026-04-23 18:38 | 55.37370 | 12.23444 | 32930 ft | 478 kts | 218° |
| 2026-04-23 18:39 | 55.34630 | 12.20195 | 32361 ft | 472 kts | 218° |
| 2026-04-23 18:39 | 55.31934 | 12.16951 | 31785 ft | 467 kts | 219° |
| 2026-04-23 18:39 | 55.29289 | 12.13682 | 31222 ft | 462 kts | 219° |
| 2026-04-23 18:39 | 55.26688 | 12.10404 | 30663 ft | 458 kts | 220° |
| 2026-04-23 18:40 | 55.24123 | 12.07143 | 30093 ft | 454 kts | 220° |
| 2026-04-23 18:40 | 55.21576 | 12.03912 | 29463 ft | 450 kts | 220° |
| 2026-04-23 18:40 | 55.19046 | 12.00728 | 28842 ft | 446 kts | 219° |
| 2026-04-23 18:40 | 55.16559 | 11.97624 | 28256 ft | 443 kts | 219° |
| 2026-04-23 18:41 | 55.14055 | 11.94516 | 27650 ft | 440 kts | 219° |
| 2026-04-23 18:41 | 55.11566 | 11.91438 | 27086 ft | 436 kts | 219° |
| 2026-04-23 18:41 | 55.09094 | 11.88384 | 26262 ft | 438 kts | 219° |
| 2026-04-23 18:41 | 55.06574 | 11.85264 | 25090 ft | 450 kts | 219° |
| 2026-04-23 18:42 | 55.03980 | 11.82054 | 24039 ft | 470 kts | 219° |
| 2026-04-23 18:42 | 55.01241 | 11.78664 | 23452 ft | 491 kts | 218° |
| 2026-04-23 18:42 | 54.98432 | 11.75203 | 23189 ft | 497 kts | 218° |
| 2026-04-23 18:42 | 54.95601 | 11.71731 | 23116 ft | 498 kts | 218° |
| 2026-04-23 18:43 | 54.92761 | 11.68259 | 23149 ft | 498 kts | 218° |
| 2026-04-23 18:43 | 54.89923 | 11.64798 | 23152 ft | 498 kts | 218° |
| 2026-04-23 18:43 | 54.87092 | 11.61350 | 23152 ft | 498 kts | 218° |
| 2026-04-23 18:43 | 54.84249 | 11.57890 | 23152 ft | 498 kts | 218° |
| 2026-04-23 18:44 | 54.81415 | 11.54445 | 23127 ft | 497 kts | 218° |
| 2026-04-23 18:44 | 54.78606 | 11.51036 | 22504 ft | 488 kts | 218° |
| 2026-04-23 18:44 | 54.75837 | 11.47680 | 21605 ft | 484 kts | 218° |
| 2026-04-23 18:44 | 54.73090 | 11.44351 | 20778 ft | 479 kts | 218° |
| 2026-04-23 18:45 | 54.70377 | 11.41068 | 20022 ft | 474 kts | 218° |
| 2026-04-23 18:45 | 54.67690 | 11.37825 | 19283 ft | 468 kts | 217° |
| 2026-04-23 18:45 | 54.65028 | 11.34619 | 18572 ft | 464 kts | 217° |
| 2026-04-23 18:45 | 54.62395 | 11.31453 | 17786 ft | 460 kts | 217° |
| 2026-04-23 18:46 | 54.59780 | 11.28315 | 17028 ft | 455 kts | 217° |
| 2026-04-23 18:46 | 54.57186 | 11.25209 | 16291 ft | 451 kts | 217° |
| 2026-04-23 18:46 | 54.54619 | 11.22137 | 15572 ft | 447 kts | 218° |
| 2026-04-23 18:46 | 54.52077 | 11.19097 | 14881 ft | 444 kts | 218° |
| 2026-04-23 18:47 | 54.49545 | 11.16076 | 14174 ft | 440 kts | 218° |
| 2026-04-23 18:47 | 54.47039 | 11.13088 | 13461 ft | 436 kts | 217° |
| 2026-04-23 18:47 | 54.44563 | 11.10140 | 12762 ft | 430 kts | 218° |
| 2026-04-23 18:47 | 54.42115 | 11.07230 | 12063 ft | 425 kts | 218° |
| 2026-04-23 18:48 | 54.39698 | 11.04364 | 11450 ft | 419 kts | 218° |
| 2026-04-23 18:48 | 54.37334 | 11.01573 | 11060 ft | 407 kts | 218° |
| 2026-04-23 18:48 | 54.35026 | 10.98850 | 10512 ft | 401 kts | 218° |
| 2026-04-23 18:48 | 54.32765 | 10.96180 | 10248 ft | 386 kts | 218° |
| 2026-04-23 18:49 | 54.30603 | 10.93635 | 10180 ft | 367 kts | 218° |
| 2026-04-23 18:49 | 54.28555 | 10.91229 | 10203 ft | 348 kts | 218° |
| 2026-04-23 18:49 | 54.26609 | 10.88943 | 10208 ft | 330 kts | 219° |
| 2026-04-23 18:49 | 54.24759 | 10.86775 | 10206 ft | 314 kts | 219° |
| 2026-04-23 18:50 | 54.23577 | 10.85388 | 10208 ft | 309 kts | 219° |
| 2026-04-23 18:50 | 54.21250 | 10.82648 | 10217 ft | 306 kts | 219° |
| 2026-04-23 18:50 | 54.19501 | 10.80588 | 10209 ft | 305 kts | 219° |
| 2026-04-23 18:50 | 54.17749 | 10.78532 | 10216 ft | 306 kts | 219° |
| 2026-04-23 18:51 | 54.15994 | 10.76472 | 10219 ft | 306 kts | 219° |
| 2026-04-23 18:51 | 54.14242 | 10.74420 | 10220 ft | 306 kts | 219° |
| 2026-04-23 18:51 | 54.12487 | 10.72371 | 10221 ft | 306 kts | 219° |
| 2026-04-23 18:51 | 54.10732 | 10.70327 | 10196 ft | 305 kts | 219° |
| 2026-04-23 18:52 | 54.08984 | 10.68299 | 9836 ft | 303 kts | 219° |
| 2026-04-23 18:52 | 54.07245 | 10.66278 | 9453 ft | 302 kts | 219° |
| 2026-04-23 18:52 | 54.05517 | 10.64270 | 9076 ft | 300 kts | 219° |
| 2026-04-23 18:52 | 54.03793 | 10.62268 | 8695 ft | 299 kts | 219° |
| 2026-04-23 18:53 | 54.02076 | 10.60277 | 8304 ft | 297 kts | 219° |
| 2026-04-23 18:53 | 54.00369 | 10.58299 | 7904 ft | 296 kts | 219° |
| 2026-04-23 18:53 | 53.98666 | 10.56326 | 7527 ft | 295 kts | 219° |
| 2026-04-23 18:53 | 53.96974 | 10.54366 | 7239 ft | 292 kts | 219° |
| 2026-04-23 18:54 | 53.95293 | 10.52426 | 7223 ft | 293 kts | 219° |
| 2026-04-23 18:54 | 53.93606 | 10.50480 | 7222 ft | 293 kts | 219° |
| 2026-04-23 18:54 | 53.91928 | 10.48545 | 6923 ft | 291 kts | 219° |
| 2026-04-23 18:54 | 53.90273 | 10.46640 | 6740 ft | 281 kts | 219° |
| 2026-04-23 18:55 | 53.88687 | 10.44827 | 6622 ft | 270 kts | 220° |
| 2026-04-23 18:55 | 53.87669 | 10.43664 | 6506 ft | 264 kts | 220° |
| 2026-04-23 18:55 | 53.86157 | 10.41932 | 6188 ft | 261 kts | 220° |
| 2026-04-23 18:55 | 53.84668 | 10.40225 | 5976 ft | 256 kts | 220° |
| 2026-04-23 18:56 | 53.83196 | 10.38535 | 5701 ft | 254 kts | 220° |
| 2026-04-23 18:56 | 53.81775 | 10.36785 | 5414 ft | 249 kts | 228° |
| 2026-04-23 18:56 | 53.80593 | 10.34706 | 5137 ft | 243 kts | 237° |
| 2026-04-23 18:56 | 53.79526 | 10.32500 | 4815 ft | 242 kts | 238° |
| 2026-04-23 18:57 | 53.78464 | 10.30292 | 4496 ft | 242 kts | 237° |
| 2026-04-23 18:57 | 53.77413 | 10.28137 | 4357 ft | 233 kts | 237° |
| 2026-04-23 18:57 | 53.76397 | 10.26057 | 4231 ft | 226 kts | 238° |
| 2026-04-23 18:57 | 53.75414 | 10.24045 | 4091 ft | 217 kts | 238° |
| 2026-04-23 18:58 | 53.74498 | 10.22176 | 3989 ft | 200 kts | 239° |
| 2026-04-23 18:58 | 53.73637 | 10.20418 | 3770 ft | 187 kts | 239° |
| 2026-04-23 18:58 | 53.72817 | 10.18735 | 3401 ft | 184 kts | 240° |
| 2026-04-23 18:58 | 53.72011 | 10.17086 | 3026 ft | 180 kts | 240° |
| 2026-04-23 18:59 | 53.71223 | 10.15475 | 2570 ft | 179 kts | 240° |
| 2026-04-23 18:59 | 53.70427 | 10.13850 | 2248 ft | 180 kts | 241° |
| 2026-04-23 18:59 | 53.69644 | 10.12260 | 1960 ft | 169 kts | 240° |
| 2026-04-23 18:59 | 53.68928 | 10.10810 | 1736 ft | 153 kts | 241° |
| 2026-04-23 19:00 | 53.68266 | 10.09461 | 1529 ft | 146 kts | 241° |
| 2026-04-23 19:00 | 53.67629 | 10.08161 | 1332 ft | 142 kts | 239° |
| 2026-04-23 19:00 | 53.67010 | 10.06899 | 1133 ft | 138 kts | 240° |
| 2026-04-23 19:00 | 53.66403 | 10.05663 | 950 ft | 136 kts | 239° |
| 2026-04-23 19:01 | 53.65808 | 10.04454 | 766 ft | 132 kts | 238° |
| 2026-04-23 19:01 | 53.65220 | 10.03257 | 589 ft | 134 kts | 236° |
| 2026-04-23 19:01 | 53.64636 | 10.02072 | 408 ft | 130 kts | 237° |
| 2026-04-23 19:01 | 53.64043 | 10.00869 | 236 ft | 130 kts | 234° |
| 2026-04-23 19:02 | 53.63473 | 9.99712 | 57 ft | 127 kts | 230° |
| 2026-04-23 19:02 | 53.63028 | 9.98803 | 43 ft | 50 kts | 229° |
| 2026-04-23 19:02 | 53.62931 | 9.98615 | 43 ft | 17 kts | 229° |
| 2026-04-23 19:02 | 53.62831 | 9.98505 | 45 ft | 17 kts | 202° |
| 2026-04-23 19:03 | 53.62733 | 9.98476 | 43 ft | 0 kts | 176° |
| 2026-04-23 19:03 | 53.62731 | 9.98476 | 43 ft | 1 kts | 176° |
| 2026-04-23 19:03 | 53.62711 | 9.98484 | 42 ft | 4 kts | 149° |
| 2026-04-23 19:04 | 53.62697 | 9.98538 | 43 ft | 6 kts | 106° |
| 2026-04-23 19:04 | 53.62729 | 9.98631 | 43 ft | 12 kts | 48° |
| 2026-04-23 19:04 | 53.62780 | 9.98733 | 43 ft | 11 kts | 51° |
| 2026-04-23 19:04 | 53.62825 | 9.98826 | 43 ft | 10 kts | 50° |
| 2026-04-23 19:05 | 53.62872 | 9.98919 | 43 ft | 11 kts | 50° |
| 2026-04-23 19:05 | 53.62919 | 9.99015 | 43 ft | 10 kts | 50° |
| 2026-04-23 19:05 | 53.62960 | 9.99099 | 44 ft | 9 kts | 50° |
| 2026-04-23 19:05 | 53.62996 | 9.99169 | 44 ft | 7 kts | 50° |
| 2026-04-23 19:06 | 53.63039 | 9.99257 | 44 ft | 12 kts | 52° |
| 2026-04-23 19:06 | 53.63078 | 9.99347 | 45 ft | 0 kts | 54° |
| 2026-04-23 19:06 | 53.63081 | 9.99355 | 45 ft | 1 kts | 54° |
| 2026-04-23 19:06 | 53.63095 | 9.99387 | 45 ft | 4 kts | 54° |
| 2026-04-23 19:07 | 53.63117 | 9.99441 | 45 ft | 13 kts | 55° |
| 2026-04-23 19:07 | 53.63171 | 9.99563 | 44 ft | 13 kts | 53° |
| 2026-04-23 19:07 | 53.63203 | 9.99631 | 44 ft | 0 kts | 51° |
| 2026-04-23 19:08 | 53.63212 | 9.99649 | 45 ft | 10 kts | 51° |
| 2026-04-23 19:08 | 53.63267 | 9.99743 | 45 ft | 11 kts | 44° |
| 2026-04-23 19:08 | 53.63315 | 9.99830 | 45 ft | 10 kts | 49° |
| 2026-04-23 19:08 | 53.63355 | 9.99908 | 45 ft | 8 kts | 49° |
| 2026-04-23 19:09 | 53.63386 | 9.99977 | 45 ft | 7 kts | 52° |
| 2026-04-23 19:09 | 53.63411 | 10.00033 | 46 ft | 5 kts | 53° |
| 2026-04-23 19:09 | 53.63428 | 10.00079 | 46 ft | 4 kts | 60° |
| 2026-04-23 19:09 | 53.63431 | 10.00118 | 44 ft | 4 kts | 99° |
| 2026-04-23 19:10 | 53.63412 | 10.00151 | 46 ft | 4 kts | 153° |
| 2026-04-23 19:10 | 53.63391 | 10.00159 | 46 ft | 3 kts | 169° |
| 2026-04-23 19:10 | 53.63374 | 10.00163 | 44 ft | 2 kts | 174° |
| 2026-04-23 19:10 | 53.63361 | 10.00163 | 46 ft | 2 kts | 179° |
| 2026-04-23 19:11 | 53.63352 | 10.00163 | 46 ft | 2 kts | 181° |
| 2026-04-23 19:11 | 53.63322 | 10.00167 | 46 ft | 4 kts | 175° |
| 2026-04-23 19:11 | 53.63299 | 10.00183 | 44 ft | 4 kts | 128° |
| 2026-04-23 19:11 | 53.63292 | 10.00247 | 46 ft | 6 kts | 89° |
| 2026-04-23 19:12 | 53.63293 | 10.00267 | 46 ft | 2 kts | 89° |
| 2026-04-23 19:12 | 53.63294 | 10.00309 | 46 ft | 3 kts | 86° |
| 2026-04-23 19:12 | 53.63294 | 10.00338 | 46 ft | 2 kts | 87° |
| 2026-04-23 19:12 | 53.63295 | 10.00354 | 46 ft | 1 kts | 87° |
| 2026-04-23 19:13 | 53.63295 | 10.00355 | 46 ft | 0 kts | 87° |